Time;durP1;ratioP1;P1;durP2;ratioP2;P2;SDS_P1;SDS_P2;PMS_P1;PMS_P2;Temp;Humidity;BMP_temperature;BMP_pressure;BME280_temperature;BME280_humidity;BME280_pressure;Samples;Min_cycle;Max_cycle;Signal;HPM_P1;HPM_P2
2022/01/02 00:01:12;;;;;;;1.60;1.50;;;11.90;43.80;;;;;;5054134;28;20498;-79
2022/01/02 00:03:40;;;;;;;1.40;1.30;;;11.60;43.70;;;;;;5066028;28;20048;-80
2022/01/02 00:06:08;;;;;;;2.13;1.92;;;11.80;43.80;;;;;;5052655;28;20037;-79
2022/01/02 00:08:41;;;;;;;3.08;1.70;;;11.80;43.50;;;;;;5066808;28;20032;-79
2022/01/02 00:11:12;;;;;;;1.58;1.48;;;11.90;43.50;;;;;;5065668;28;20036;-79
2022/01/02 00:13:46;;;;;;;1.60;1.50;;;11.90;43.60;;;;;;5067790;28;20029;-79
2022/01/02 00:16:16;;;;;;;1.63;1.45;;;11.90;43.60;;;;;;5067545;28;20028;-80
2022/01/02 00:18:50;;;;;;;1.55;1.45;;;11.90;43.60;;;;;;5048095;28;20043;-79
2022/01/02 00:21:18;;;;;;;1.87;1.77;;;11.80;43.90;;;;;;5052772;28;20094;-79
2022/01/02 00:23:59;;;;;;;1.80;1.70;;;11.80;44.00;;;;;;5049104;28;20093;-79
2022/01/02 00:26:36;;;;;;;2.13;1.92;;;11.80;44.10;;;;;;5067748;28;20037;-78
2022/01/02 00:29:05;;;;;;;2.30;1.60;;;11.90;44.60;;;;;;5067581;28;20041;-79
2022/01/02 00:31:32;;;;;;;1.70;1.60;;;12.00;45.00;;;;;;5065054;28;20101;-79
2022/01/02 00:34:00;;;;;;;2.22;1.52;;;12.00;45.10;;;;;;5049772;28;20085;-78
2022/01/02 00:36:26;;;;;;;1.88;1.67;;;12.10;45.10;;;;;;5067284;28;20361;-78
2022/01/02 00:38:52;;;;;;;1.85;1.70;;;11.90;45.10;;;;;;5065936;28;20415;-78
2022/01/02 00:41:33;;;;;;;1.70;1.60;;;12.00;45.20;;;;;;5049271;28;20033;-78
2022/01/02 00:44:34;;;;;;;1.83;1.60;;;11.90;45.20;;;;;;5050482;28;20665;-79
2022/01/02 00:47:36;;;;;;;1.27;1.20;;;11.90;45.30;;;;;;5039117;28;20051;-78
2022/01/02 00:50:26;;;;;;;1.40;1.30;;;11.80;45.20;;;;;;5066096;28;20040;-78
2022/01/02 00:52:58;;;;;;;1.40;1.30;;;11.70;45.30;;;;;;5048804;28;20420;-79
2022/01/02 00:55:25;;;;;;;1.67;1.55;;;11.80;45.50;;;;;;5065845;28;20474;-79
2022/01/02 00:58:00;;;;;;;1.50;1.40;;;11.80;45.20;;;;;;5051441;28;20091;-80
2022/01/02 01:00:29;;;;;;;1.60;1.50;;;11.80;44.90;;;;;;5050331;28;20029;-78
2022/01/02 01:02:59;;;;;;;1.45;1.30;;;11.70;44.60;;;;;;5066896;28;20036;-78
2022/01/02 01:05:31;;;;;;;1.30;1.13;;;11.50;44.60;;;;;;5065529;28;20147;-79
2022/01/02 01:08:01;;;;;;;1.48;1.10;;;11.40;44.40;;;;;;5047960;28;20028;-79
2022/01/02 01:10:29;;;;;;;1.40;1.30;;;11.40;44.40;;;;;;5066255;28;20036;-79
2022/01/02 01:12:59;;;;;;;1.10;1.00;;;11.50;44.10;;;;;;5065721;28;20082;-78
2022/01/02 01:15:28;;;;;;;1.52;1.10;;;11.40;43.90;;;;;;5047210;28;20052;-79
2022/01/02 01:17:56;;;;;;;0.98;0.90;;;11.50;43.90;;;;;;5048991;28;20128;-79
2022/01/02 01:20:36;;;;;;;1.77;1.13;;;11.60;44.10;;;;;;5064932;28;20032;-79
2022/01/02 01:23:02;;;;;;;1.20;1.10;;;11.70;44.80;;;;;;5049426;28;20036;-78
2022/01/02 01:25:28;;;;;;;1.80;1.27;;;11.70;45.20;;;;;;5051437;28;20028;-79
2022/01/02 01:27:55;;;;;;;1.30;1.20;;;11.70;45.30;;;;;;5046743;28;20510;-80
2022/01/02 01:30:24;;;;;;;1.20;1.10;;;11.80;45.40;;;;;;5064192;28;20032;-79
2022/01/02 01:32:53;;;;;;;1.20;1.10;;;11.70;45.40;;;;;;5052817;28;20036;-79
2022/01/02 01:35:19;;;;;;;1.17;1.17;;;11.50;45.50;;;;;;5065254;28;20056;-79
2022/01/02 01:37:46;;;;;;;1.30;1.20;;;11.50;45.40;;;;;;5050457;28;20028;-79
2022/01/02 01:40:13;;;;;;;1.52;1.40;;;11.50;45.30;;;;;;5064432;28;20164;-78
2022/01/02 01:42:43;;;;;;;1.30;1.20;;;11.60;45.60;;;;;;5047763;28;20398;-81
2022/01/02 01:47:51;;;;;;;1.40;1.30;;;11.50;45.70;;;;;;5047995;28;20123;-77
2022/01/02 01:50:19;;;;;;;1.30;1.20;;;11.60;46.10;;;;;;5063759;28;20178;-76
2022/01/02 01:52:45;;;;;;;1.67;1.10;;;11.70;46.70;;;;;;5049148;28;20028;-78
2022/01/02 01:55:13;;;;;;;1.40;1.30;;;11.70;47.00;;;;;;5049089;28;20046;-81
2022/01/02 01:57:40;;;;;;;1.48;1.05;;;11.80;47.60;;;;;;5048672;28;20035;-80
2022/01/02 02:00:13;;;;;;;1.27;1.17;;;11.80;48.00;;;;;;5046885;28;20036;-79
2022/01/02 02:02:44;;;;;;;0.93;0.93;;;11.70;47.40;;;;;;5064245;28;20029;-80
2022/01/02 02:05:12;;;;;;;0.80;0.80;;;11.30;47.20;;;;;;5031986;28;20028;-80
2022/01/02 02:07:42;;;;;;;1.65;0.88;;;11.20;46.80;;;;;;5039375;28;20029;-78
2022/01/02 02:10:18;;;;;;;1.17;0.80;;;11.20;46.50;;;;;;5047517;28;20082;-78
2022/01/02 02:12:46;;;;;;;1.13;1.02;;;11.20;46.00;;;;;;5064128;28;20045;-79
2022/01/02 02:15:15;;;;;;;0.90;0.90;;;11.10;45.90;;;;;;5045731;28;20055;-80
2022/01/02 02:17:44;;;;;;;0.90;0.80;;;11.00;45.60;;;;;;5065013;28;20101;-78
2022/01/02 02:20:36;;;;;;;0.98;0.80;;;11.10;45.60;;;;;;5063301;28;20034;-79
2022/01/02 02:23:06;;;;;;;1.83;1.10;;;11.20;45.50;;;;;;5039934;28;20144;-78
2022/01/02 02:25:36;;;;;;;1.58;1.27;;;11.20;45.40;;;;;;5064316;28;20155;-79
2022/01/02 02:28:06;;;;;;;0.70;0.70;;;11.20;45.50;;;;;;5064102;28;20032;-79
2022/01/02 02:30:36;;;;;;;0.73;0.73;;;11.20;45.70;;;;;;5063831;28;20067;-78
2022/01/02 02:33:04;;;;;;;0.70;0.70;;;11.10;45.70;;;;;;5048751;28;20032;-78
2022/01/02 02:35:32;;;;;;;0.82;0.82;;;10.90;45.70;;;;;;5063978;28;20036;-78
2022/01/02 02:37:58;;;;;;;0.70;0.70;;;11.10;45.70;;;;;;5046827;28;20020;-79
2022/01/02 02:40:26;;;;;;;1.25;1.00;;;11.00;45.50;;;;;;5048557;28;20099;-79
2022/01/02 02:43:09;;;;;;;1.27;1.08;;;11.00;45.50;;;;;;5048409;28;20466;-79
2022/01/02 02:51:19;;;;;;;1.05;0.95;;;11.00;45.50;;;;;;5063052;28;20033;-79
2022/01/02 02:53:47;;;;;;;0.98;0.90;;;10.90;45.60;;;;;;5064382;28;20382;-78
2022/01/02 02:58:42;;;;;;;1.85;1.05;;;11.00;45.60;;;;;;5063539;28;20110;-79
2022/01/02 03:01:15;;;;;;;1.65;1.10;;;11.00;45.70;;;;;;5049275;28;20029;-78
2022/01/02 03:03:43;;;;;;;1.10;1.00;;;11.00;45.60;;;;;;5047134;28;20101;-78
2022/01/02 03:06:10;;;;;;;1.27;1.17;;;10.90;45.60;;;;;;5047856;28;20028;-79
2022/01/02 03:08:37;;;;;;;0.85;0.85;;;10.80;45.80;;;;;;5062943;28;20082;-78
2022/01/02 03:11:07;;;;;;;0.95;0.80;;;10.90;45.70;;;;;;5033102;28;20032;-79
2022/01/02 03:13:33;;;;;;;0.93;0.80;;;11.00;45.80;;;;;;5047108;28;20646;-79
2022/01/02 03:15:59;;;;;;;1.00;0.95;;;11.10;46.10;;;;;;5036872;28;20024;-79
2022/01/02 03:18:25;;;;;;;2.33;0.80;;;10.90;46.10;;;;;;5062365;28;20068;-78
2022/01/02 03:20:51;;;;;;;1.00;0.90;;;11.00;46.10;;;;;;5062359;28;20506;-77
2022/01/02 03:23:17;;;;;;;1.17;0.77;;;11.00;46.10;;;;;;5035698;28;20063;-78
2022/01/02 03:25:43;;;;;;;0.85;0.80;;;11.00;46.40;;;;;;5032956;28;20060;-78
2022/01/02 03:28:09;;;;;;;2.20;1.20;;;11.10;46.50;;;;;;5063578;28;20046;-78
2022/01/02 03:30:35;;;;;;;0.93;0.80;;;11.00;46.50;;;;;;5042041;28;20165;-78
2022/01/02 03:33:01;;;;;;;1.15;1.00;;;11.00;46.80;;;;;;5063586;28;20040;-77
2022/01/02 03:35:27;;;;;;;0.98;0.95;;;11.00;46.60;;;;;;5063140;28;20060;-77
2022/01/02 03:37:53;;;;;;;2.05;1.05;;;10.90;46.40;;;;;;5052089;28;20502;-78
2022/01/02 03:40:19;;;;;;;0.93;0.90;;;10.90;46.60;;;;;;5046515;28;20530;-79
2022/01/02 03:42:46;;;;;;;1.67;1.00;;;10.90;46.40;;;;;;5051581;28;20032;-79
2022/01/02 03:45:12;;;;;;;0.80;0.80;;;10.90;46.40;;;;;;5030202;28;21402;-79
2022/01/02 03:47:39;;;;;;;1.63;0.88;;;10.80;46.40;;;;;;5048453;28;20127;-80
2022/01/02 03:50:08;;;;;;;0.75;0.75;;;10.80;46.30;;;;;;5059864;28;20047;-78
2022/01/02 03:52:34;;;;;;;1.38;0.98;;;10.80;46.10;;;;;;5049274;28;20032;-78
2022/01/02 03:55:00;;;;;;;1.00;0.90;;;10.90;46.30;;;;;;5046169;28;20029;-78
2022/01/02 03:57:26;;;;;;;1.08;0.93;;;10.90;46.60;;;;;;5049237;28;20025;-78
2022/01/02 03:59:52;;;;;;;1.85;0.88;;;10.80;46.40;;;;;;5047732;28;20814;-77
2022/01/02 04:02:18;;;;;;;1.65;0.70;;;10.90;46.40;;;;;;5046116;28;20034;-78
2022/01/02 04:04:44;;;;;;;0.88;0.88;;;10.90;47.10;;;;;;5060628;28;20032;-78
2022/01/02 04:07:11;;;;;;;0.85;0.85;;;11.00;47.50;;;;;;5048869;28;20542;-78
2022/01/02 04:09:37;;;;;;;1.63;1.02;;;11.00;47.30;;;;;;5047192;28;20422;-78
2022/01/02 04:12:03;;;;;;;0.88;0.63;;;11.00;46.90;;;;;;5047712;28;20036;-77
2022/01/02 04:14:31;;;;;;;1.45;0.70;;;11.00;46.60;;;;;;5049501;28;20116;-77
2022/01/02 04:16:57;;;;;;;1.77;0.60;;;10.90;46.40;;;;;;5063923;28;20107;-77
2022/01/02 04:19:23;;;;;;;1.33;0.80;;;11.00;46.20;;;;;;5062738;28;20052;-77
2022/01/02 04:21:49;;;;;;;1.08;0.70;;;10.90;46.20;;;;;;5063836;28;20520;-78
2022/01/02 04:24:15;;;;;;;2.10;0.90;;;10.90;46.20;;;;;;5061058;28;20063;-78
2022/01/02 04:26:41;;;;;;;1.23;0.80;;;10.80;46.00;;;;;;5048617;28;20082;-77
2022/01/02 04:29:07;;;;;;;1.27;0.65;;;10.80;45.80;;;;;;5066982;28;20097;-78
2022/01/02 04:31:33;;;;;;;1.38;0.70;;;10.80;45.70;;;;;;5051559;28;20053;-78
2022/01/02 04:33:59;;;;;;;1.02;0.77;;;10.70;45.50;;;;;;5043385;28;20032;-78
2022/01/02 04:36:26;;;;;;;1.48;0.80;;;10.80;45.50;;;;;;5051208;28;20025;-77
2022/01/02 04:38:53;;;;;;;0.88;0.60;;;10.80;45.30;;;;;;5052519;28;20036;-78
2022/01/02 04:41:19;;;;;;;0.55;0.55;;;10.90;45.20;;;;;;5066381;28;20135;-77
2022/01/02 04:43:45;;;;;;;1.30;0.70;;;10.80;45.20;;;;;;5045712;28;20036;-77
2022/01/02 04:46:11;;;;;;;1.75;0.60;;;10.80;45.00;;;;;;5036194;28;20024;-77
2022/01/02 04:48:37;;;;;;;1.15;0.80;;;10.90;45.00;;;;;;5066245;28;20074;-77
2022/01/02 04:51:03;;;;;;;0.75;0.68;;;10.70;44.90;;;;;;5052371;28;20483;-79
2022/01/02 04:53:30;;;;;;;2.60;0.90;;;10.80;45.10;;;;;;5050838;28;20126;-78
2022/01/02 04:55:56;;;;;;;1.98;1.00;;;10.60;45.10;;;;;;5066883;28;20038;-78
2022/01/02 04:58:22;;;;;;;1.63;0.90;;;10.60;45.10;;;;;;5064983;28;20067;-79
2022/01/02 05:00:48;;;;;;;1.60;1.15;;;10.50;45.00;;;;;;5052990;28;20063;-78
2022/01/02 05:03:14;;;;;;;0.80;0.52;;;10.40;45.00;;;;;;5066006;28;20135;-80
2022/01/02 05:05:41;;;;;;;1.15;0.95;;;10.60;44.70;;;;;;5046832;28;20036;-78
2022/01/02 05:08:06;;;;;;;1.25;0.70;;;10.40;44.80;;;;;;5052319;28;20044;-78
2022/01/02 05:10:32;;;;;;;1.48;0.77;;;10.50;44.80;;;;;;5052153;28;20033;-78
2022/01/02 05:12:58;;;;;;;0.90;0.63;;;10.50;44.80;;;;;;5065595;28;20029;-79
2022/01/02 05:15:24;;;;;;;3.45;0.82;;;10.50;44.80;;;;;;5066637;28;20025;-79
2022/01/02 05:17:51;;;;;;;0.75;0.70;;;10.50;44.60;;;;;;5067451;28;20112;-78
2022/01/02 05:20:16;;;;;;;1.10;0.95;;;10.30;44.70;;;;;;5062615;28;20127;-78
2022/01/02 05:22:43;;;;;;;0.90;0.52;;;10.40;44.50;;;;;;5051850;28;20123;-79
2022/01/02 05:25:09;;;;;;;1.45;0.90;;;10.40;44.40;;;;;;5064780;28;20089;-79
2022/01/02 05:27:35;;;;;;;1.27;0.60;;;10.40;44.50;;;;;;5048078;28;20039;-79
2022/01/02 05:30:02;;;;;;;1.45;0.70;;;10.40;44.40;;;;;;5066315;28;20044;-78
2022/01/02 05:32:29;;;;;;;2.10;0.80;;;10.40;44.30;;;;;;5061272;28;20500;-78
2022/01/02 05:34:55;;;;;;;1.10;0.60;;;10.50;44.20;;;;;;5045174;28;20021;-78
2022/01/02 05:37:21;;;;;;;0.95;0.80;;;10.60;44.00;;;;;;5048059;28;20091;-78
2022/01/02 05:39:47;;;;;;;0.63;0.52;;;10.60;43.90;;;;;;5046292;28;20547;-78
2022/01/02 05:42:15;;;;;;;1.05;0.70;;;10.60;44.00;;;;;;5048148;28;20052;-81
2022/01/02 05:44:41;;;;;;;2.15;0.98;;;10.70;44.70;;;;;;5060739;28;20060;-79
2022/01/02 05:47:07;;;;;;;1.20;0.70;;;10.70;43.90;;;;;;5062017;28;20127;-78
2022/01/02 05:49:33;;;;;;;1.25;0.93;;;10.70;43.80;;;;;;5046009;28;20037;-79
2022/01/02 05:52:00;;;;;;;1.08;0.80;;;10.80;43.90;;;;;;5061001;28;20020;-78
2022/01/02 05:54:26;;;;;;;0.90;0.65;;;10.90;43.90;;;;;;5045070;28;20557;-78
2022/01/02 05:56:52;;;;;;;1.63;0.77;;;11.00;44.00;;;;;;5048404;28;20025;-78
2022/01/02 05:59:18;;;;;;;1.25;0.60;;;11.10;43.90;;;;;;5060877;28;20035;-77
2022/01/02 06:01:44;;;;;;;1.73;0.80;;;11.10;43.80;;;;;;5046363;28;20029;-76
2022/01/02 06:04:10;;;;;;;2.95;0.70;;;11.20;44.20;;;;;;5058157;28;20040;-78
2022/01/02 06:06:37;;;;;;;2.40;0.75;;;11.10;43.70;;;;;;5059865;28;20037;-78
2022/01/02 06:09:03;;;;;;;0.93;0.90;;;11.20;43.60;;;;;;5061217;28;20056;-79
2022/01/02 06:11:30;;;;;;;0.88;0.60;;;11.30;43.70;;;;;;5045073;28;20097;-78
2022/01/02 06:13:57;;;;;;;1.17;0.65;;;11.40;44.30;;;;;;5059136;28;20041;-79
2022/01/02 06:16:25;;;;;;;0.75;0.68;;;11.40;44.00;;;;;;5061709;28;20033;-78
2022/01/02 06:18:52;;;;;;;1.20;0.70;;;11.50;43.80;;;;;;5060112;28;20025;-78
2022/01/02 06:21:18;;;;;;;0.70;0.50;;;11.50;43.60;;;;;;5061662;28;20090;-77
2022/01/02 06:23:44;;;;;;;2.00;0.90;;;11.60;43.30;;;;;;5059117;28;20036;-77
2022/01/02 06:26:10;;;;;;;1.17;0.68;;;11.70;43.70;;;;;;5060300;28;20033;-77
2022/01/02 06:28:36;;;;;;;0.80;0.75;;;11.80;43.50;;;;;;5058901;28;20104;-77
2022/01/02 06:31:02;;;;;;;0.60;0.60;;;11.80;43.30;;;;;;5058860;28;20041;-78
2022/01/02 06:33:30;;;;;;;1.20;0.60;;;11.80;42.90;;;;;;5059443;28;20025;-78
2022/01/02 06:35:56;;;;;;;1.17;0.60;;;11.90;43.30;;;;;;5030640;28;20101;-79
2022/01/02 06:38:22;;;;;;;0.90;0.68;;;11.80;43.00;;;;;;5044326;28;20562;-78
2022/01/02 06:40:52;;;;;;;0.73;0.73;;;11.90;45.40;;;;;;5058994;28;20408;-79
2022/01/02 06:43:21;;;;;;;1.55;0.90;;;12.00;45.80;;;;;;5042377;28;20040;-79
2022/01/02 06:45:47;;;;;;;1.48;0.82;;;12.00;45.00;;;;;;5044309;28;20403;-79
2022/01/02 06:48:13;;;;;;;3.20;1.20;;;11.90;43.30;;;;;;5044762;28;20131;-78
2022/01/02 06:50:39;;;;;;;2.55;1.00;;;11.80;42.20;;;;;;5044093;28;20053;-79
2022/01/02 06:53:06;;;;;;;1.50;1.15;;;11.70;41.40;;;;;;5045288;28;20033;-78
2022/01/02 06:55:32;;;;;;;1.63;0.93;;;11.50;41.00;;;;;;5047235;28;20411;-78
2022/01/02 06:57:59;;;;;;;1.33;0.93;;;11.40;40.60;;;;;;5043844;28;20033;-78
2022/01/02 07:00:25;;;;;;;1.20;1.08;;;11.30;40.30;;;;;;5042290;28;20053;-78
2022/01/02 07:02:52;;;;;;;1.65;0.80;;;11.20;40.00;;;;;;5028515;28;20031;-78
2022/01/02 07:05:18;;;;;;;1.35;1.00;;;11.20;40.00;;;;;;5045649;28;20488;-81
2022/01/02 07:07:45;;;;;;;1.75;1.15;;;11.00;39.90;;;;;;5060629;28;20098;-81
2022/01/02 07:10:14;;;;;;;1.60;1.20;;;11.00;39.60;;;;;;5043895;28;20033;-80
2022/01/02 07:12:41;;;;;;;2.22;1.40;;;10.90;39.40;;;;;;5045177;28;20059;-80
2022/01/02 07:15:08;;;;;;;2.55;0.98;;;10.80;39.50;;;;;;5044381;28;20040;-81
2022/01/02 07:17:34;;;;;;;2.53;1.17;;;10.70;39.40;;;;;;5040115;28;20121;-81
2022/01/02 07:20:01;;;;;;;1.65;1.23;;;10.60;39.40;;;;;;5043200;28;20279;-82
2022/01/02 07:22:27;;;;;;;1.38;1.00;;;10.60;39.40;;;;;;5045976;28;20126;-82
2022/01/02 07:24:52;;;;;;;1.77;0.90;;;10.50;39.30;;;;;;5045652;28;21030;-82
2022/01/02 07:27:19;;;;;;;2.75;1.25;;;10.40;39.60;;;;;;5046635;28;20120;-81
2022/01/02 07:29:47;;;;;;;1.30;0.93;;;10.30;39.60;;;;;;5043196;28;20029;-79
2022/01/02 07:32:14;;;;;;;2.33;1.60;;;10.30;39.40;;;;;;5060781;28;20143;-81
2022/01/02 07:34:40;;;;;;;1.20;1.10;;;10.20;39.30;;;;;;5063974;28;20024;-81
2022/01/02 07:37:06;;;;;;;1.90;1.20;;;10.20;39.30;;;;;;5062931;28;20044;-79
2022/01/02 07:39:32;;;;;;;2.65;0.80;;;10.10;39.40;;;;;;5062303;28;20042;-80
2022/01/02 07:41:57;;;;;;;1.15;0.85;;;10.10;39.60;;;;;;5063422;28;20039;-79
2022/01/02 07:44:32;;;;;;;2.03;1.20;;;10.00;39.50;;;;;;5061183;28;20495;-80
2022/01/02 07:46:58;;;;;;;2.10;1.00;;;10.00;39.30;;;;;;5062735;28;20047;-78
2022/01/02 07:49:24;;;;;;;1.58;1.00;;;9.90;39.50;;;;;;5063680;28;20041;-78
2022/01/02 07:51:49;;;;;;;3.10;1.00;;;9.90;39.50;;;;;;5064213;28;20033;-90
2022/01/02 07:54:15;;;;;;;3.75;1.13;;;9.90;39.70;;;;;;5049525;28;20499;-90
2022/01/02 07:56:42;;;;;;;3.22;1.17;;;9.80;39.80;;;;;;5065547;28;20134;-87
2022/01/02 07:59:08;;;;;;;1.45;1.02;;;9.80;39.70;;;;;;5048216;28;20032;-88
2022/01/02 08:01:34;;;;;;;1.65;1.10;;;9.70;39.60;;;;;;5049764;28;20687;-87
2022/01/02 08:04:00;;;;;;;1.42;1.05;;;9.70;39.70;;;;;;5067958;28;20142;-91
2022/01/02 08:06:26;;;;;;;2.28;1.10;;;9.60;39.70;;;;;;5049963;28;20064;-87
2022/01/02 08:08:52;;;;;;;1.80;1.20;;;9.60;39.70;;;;;;5051054;28;20032;-86
2022/01/02 08:11:19;;;;;;;1.27;0.90;;;9.50;39.70;;;;;;5053752;28;20032;-86
2022/01/02 08:13:45;;;;;;;1.08;1.00;;;9.40;39.80;;;;;;5065062;28;20089;-86
2022/01/02 08:16:12;;;;;;;2.13;1.13;;;9.40;40.00;;;;;;5049721;28;20033;-86
2022/01/02 08:18:39;;;;;;;2.15;1.08;;;9.40;40.00;;;;;;5053549;28;20626;-85
2022/01/02 08:21:05;;;;;;;2.47;1.25;;;9.40;39.90;;;;;;5068107;28;20220;-87
2022/01/02 08:23:31;;;;;;;1.75;1.25;;;9.40;39.90;;;;;;5060953;28;20028;-82
2022/01/02 08:25:57;;;;;;;2.40;1.33;;;9.30;40.00;;;;;;5075882;28;20032;-91
2022/01/02 08:28:23;;;;;;;2.00;1.00;;;9.30;40.00;;;;;;5074364;28;20024;-87
2022/01/02 08:30:49;;;;;;;2.00;1.20;;;9.20;40.20;;;;;;5072752;28;20040;-82
2022/01/02 08:33:15;;;;;;;3.05;1.20;;;9.20;40.20;;;;;;5072305;28;20024;-86
2022/01/02 08:35:45;;;;;;;1.35;1.25;;;9.20;40.20;;;;;;5074868;28;20047;-88
2022/01/02 08:38:12;;;;;;;4.45;1.38;;;9.20;41.20;;;;;;5070305;28;20178;-84
2022/01/02 08:40:39;;;;;;;2.42;1.50;;;9.30;45.90;;;;;;5070656;28;20040;-85
2022/01/02 08:43:06;;;;;;;2.67;1.20;;;9.40;47.10;;;;;;5070942;28;20028;-85
2022/01/02 08:45:32;;;;;;;2.22;1.02;;;9.50;46.60;;;;;;5070939;28;20032;-85
2022/01/02 08:47:58;;;;;;;4.72;1.30;;;9.60;46.00;;;;;;5070123;28;20573;-83
2022/01/02 08:50:24;;;;;;;1.40;1.30;;;9.60;45.60;;;;;;5067982;28;20091;-85
2022/01/02 08:52:51;;;;;;;2.30;1.25;;;9.70;45.20;;;;;;5069893;28;20029;-84
2022/01/02 08:55:16;;;;;;;2.35;1.45;;;9.70;44.80;;;;;;5066252;28;20127;-85
2022/01/02 08:57:43;;;;;;;1.88;1.10;;;9.70;44.50;;;;;;5052174;28;20123;-85
2022/01/02 09:00:09;;;;;;;1.70;1.38;;;9.80;44.40;;;;;;5066064;28;20044;-84
2022/01/02 09:02:35;;;;;;;2.05;1.30;;;9.80;44.20;;;;;;5068089;28;20029;-83
2022/01/02 09:05:01;;;;;;;2.60;1.20;;;9.90;44.00;;;;;;5066929;28;20545;-83
2022/01/02 09:07:27;;;;;;;1.85;1.73;;;10.00;44.00;;;;;;5073116;28;20090;-84
2022/01/02 09:09:53;;;;;;;2.72;1.38;;;9.90;43.80;;;;;;5035885;28;20507;-84
2022/01/02 09:12:19;;;;;;;1.38;1.10;;;10.00;43.70;;;;;;5066716;28;20138;-84
2022/01/02 09:14:45;;;;;;;2.35;1.15;;;10.10;43.60;;;;;;5065428;28;20028;-85
2022/01/02 09:17:11;;;;;;;1.88;1.20;;;10.10;43.50;;;;;;5065310;28;20025;-83
2022/01/02 09:19:37;;;;;;;1.45;1.17;;;10.20;43.50;;;;;;5045909;28;20024;-84
2022/01/02 09:22:04;;;;;;;2.15;1.00;;;10.20;43.50;;;;;;5059341;28;20399;-84
2022/01/02 09:24:30;;;;;;;1.55;1.13;;;10.20;44.10;;;;;;5068854;28;20052;-84
2022/01/02 09:26:57;;;;;;;2.47;1.27;;;10.20;43.50;;;;;;5075260;28;20029;-84
2022/01/02 09:29:23;;;;;;;4.22;1.20;;;10.20;43.30;;;;;;5081037;28;20536;-83
2022/01/02 09:31:50;;;;;;;2.53;1.00;;;10.30;43.30;;;;;;5052992;28;20506;-83
2022/01/02 09:34:16;;;;;;;1.42;1.20;;;10.30;43.30;;;;;;5066293;28;20040;-85
2022/01/02 09:36:42;;;;;;;1.65;1.30;;;10.30;43.20;;;;;;5059703;28;20029;-91
2022/01/02 09:39:08;;;;;;;1.77;1.05;;;10.30;43.30;;;;;;5061404;28;20100;-93
2022/01/02 09:41:34;;;;;;;1.92;1.38;;;10.30;43.40;;;;;;5062655;28;20089;-91
2022/01/02 09:44:00;;;;;;;1.80;1.30;;;10.30;43.60;;;;;;5070075;28;20120;-91
2022/01/02 09:46:30;;;;;;;2.85;1.40;;;10.30;43.90;;;;;;5077168;28;20534;-90
2022/01/02 09:48:56;;;;;;;2.67;1.25;;;10.40;44.10;;;;;;5037786;28;20147;-88
2022/01/02 09:51:24;;;;;;;1.80;1.60;;;10.40;44.10;;;;;;5050562;28;20519;-90
2022/01/02 09:53:52;;;;;;;1.98;1.33;;;10.30;43.90;;;;;;5052448;28;20091;-90
2022/01/02 09:56:18;;;;;;;3.70;1.38;;;10.30;43.80;;;;;;5068377;28;20122;-92
2022/01/02 09:58:46;;;;;;;2.75;1.40;;;10.30;43.90;;;;;;5067361;28;20033;-84
2022/01/02 10:01:20;;;;;;;1.48;1.38;;;10.30;43.80;;;;;;5052181;28;20039;-85
2022/01/02 10:03:50;;;;;;;1.30;1.10;;;10.30;43.80;;;;;;5067981;28;20438;-85
2022/01/02 10:06:18;;;;;;;1.48;1.38;;;10.30;43.80;;;;;;5052892;28;20033;-91
2022/01/02 10:08:45;;;;;;;1.42;1.15;;;10.30;43.80;;;;;;5061257;28;20037;-89
2022/01/02 10:11:25;;;;;;;1.98;1.20;;;10.30;43.80;;;;;;5071862;28;20024;-88
2022/01/02 10:13:56;;;;;;;1.95;1.40;;;10.30;43.90;;;;;;5067864;28;20027;-85
2022/01/02 10:16:32;;;;;;;1.30;1.15;;;10.40;44.00;;;;;;5054032;28;20029;-86
2022/01/02 10:19:19;;;;;;;1.50;1.40;;;10.40;44.00;;;;;;5066043;28;20056;-84
2022/01/02 10:21:53;;;;;;;2.38;1.40;;;10.30;44.00;;;;;;5052655;28;20041;-85
2022/01/02 10:24:28;;;;;;;1.63;1.27;;;10.30;43.90;;;;;;5056946;28;20039;-87
2022/01/02 10:27:11;;;;;;;2.10;1.50;;;10.30;44.10;;;;;;5054711;28;20659;-85
2022/01/02 10:29:58;;;;;;;1.73;1.40;;;10.30;44.10;;;;;;5047763;28;20044;-87
2022/01/02 10:32:39;;;;;;;1.77;1.27;;;10.30;44.10;;;;;;5066662;28;20425;-88
2022/01/02 10:35:22;;;;;;;1.80;1.50;;;10.30;44.20;;;;;;5077138;28;20075;-84
2022/01/02 10:37:52;;;;;;;2.42;1.60;;;10.30;44.10;;;;;;5078858;28;20029;-85
2022/01/02 10:40:41;;;;;;;2.50;1.67;;;10.30;44.10;;;;;;5049530;28;20419;-81
2022/01/02 10:43:26;;;;;;;2.55;1.52;;;10.30;44.20;;;;;;5062853;28;20035;-84
2022/01/02 10:45:53;;;;;;;3.72;1.50;;;10.20;46.90;;;;;;5063703;28;20427;-84
2022/01/02 10:48:39;;;;;;;8.40;2.15;;;10.30;47.30;;;;;;5047653;28;20039;-86
2022/01/02 10:51:15;;;;;;;7.18;1.95;;;10.20;50.30;;;;;;5027251;28;20033;-86
2022/01/02 10:53:55;;;;;;;5.68;1.40;;;10.30;58.90;;;;;;5048512;28;20387;-82
2022/01/02 10:56:24;;;;;;;3.67;1.52;;;10.40;57.20;;;;;;5063890;28;20029;-84
2022/01/02 10:58:50;;;;;;;4.13;1.80;;;10.50;55.30;;;;;;5062576;28;20092;-85
2022/01/02 11:01:16;;;;;;;3.05;1.50;;;10.40;54.70;;;;;;5062706;28;20044;-85
2022/01/02 11:03:46;;;;;;;4.15;1.90;;;10.50;53.90;;;;;;5061402;28;20033;-90
2022/01/02 11:06:19;;;;;;;4.43;1.50;;;10.50;52.50;;;;;;5062604;28;20105;-83
2022/01/02 11:08:49;;;;;;;4.38;2.05;;;10.50;51.60;;;;;;5063501;28;20028;-83
2022/01/02 11:11:18;;;;;;;2.05;1.60;;;10.40;51.60;;;;;;5046519;28;20048;-84
2022/01/02 11:13:44;;;;;;;2.65;1.50;;;10.40;51.10;;;;;;5045665;28;20048;-84
2022/01/02 11:16:10;;;;;;;2.15;1.70;;;10.40;50.70;;;;;;5063346;28;20118;-82
2022/01/02 11:18:36;;;;;;;7.03;1.73;;;10.40;50.20;;;;;;5062018;28;20074;-83
2022/01/02 11:21:09;;;;;;;1.95;1.45;;;10.40;49.70;;;;;;5045351;28;20040;-84
2022/01/02 11:24:01;;;;;;;5.30;1.88;;;10.30;49.40;;;;;;5060842;28;20037;-78
2022/01/02 11:26:46;;;;;;;3.38;1.50;;;10.30;49.00;;;;;;5045684;28;20391;-78
2022/01/02 11:29:12;;;;;;;3.93;1.20;;;10.20;50.00;;;;;;5062359;28;20470;-79
2022/01/02 11:31:40;;;;;;;4.38;1.40;;;9.90;52.20;;;;;;5061076;28;20438;-79
2022/01/02 11:34:27;;;;;;;5.10;1.42;;;9.80;53.20;;;;;;5047526;28;20032;-78
2022/01/02 11:37:14;;;;;;;1.60;1.30;;;9.90;53.60;;;;;;5063254;28;20090;-77
2022/01/02 11:40:03;;;;;;;2.28;1.20;;;10.00;53.40;;;;;;5065921;28;20074;-78
2022/01/02 11:42:49;;;;;;;2.53;1.60;;;9.80;54.10;;;;;;5065920;28;20044;-77
2022/01/02 11:45:21;;;;;;;;;;;9.80;54.30;;;;;;5049129;28;20047;-78
2022/01/02 11:47:47;;;;;;;2.88;1.13;;;9.80;54.30;;;;;;5065901;28;19913;-78
2022/01/02 11:50:36;;;;;;;1.90;1.40;;;9.70;54.20;;;;;;5050200;28;20047;-78
2022/01/02 11:53:17;;;;;;;3.72;1.40;;;9.70;54.70;;;;;;5065596;28;20032;-78
2022/01/02 11:55:49;;;;;;;2.13;1.42;;;9.70;54.40;;;;;;5066721;28;20119;-80
2022/01/02 11:58:46;;;;;;;1.95;1.40;;;9.90;54.00;;;;;;5052252;28;20131;-75
2022/01/02 12:01:45;;;;;;;3.45;1.30;;;9.90;54.10;;;;;;5065931;28;20040;-77
2022/01/02 12:04:11;;;;;;;1.75;1.05;;;10.00;53.90;;;;;;5065701;28;20085;-77
2022/01/02 12:06:37;;;;;;;2.90;1.65;;;9.90;53.90;;;;;;5067599;28;20531;-77
2022/01/02 12:09:24;;;;;;;2.00;1.45;;;9.90;53.90;;;;;;5064534;28;20040;-79
2022/01/02 12:11:59;;;;;;;2.65;1.33;;;10.00;53.50;;;;;;5064511;28;20380;-78
2022/01/02 12:14:25;;;;;;;2.08;1.10;;;10.00;53.60;;;;;;5065408;28;20031;-78
2022/01/02 12:17:08;;;;;;;1.35;1.05;;;10.00;53.80;;;;;;5066485;28;20024;-78
2022/01/02 12:19:57;;;;;;;1.98;1.33;;;10.00;53.50;;;;;;5065408;28;20305;-78
2022/01/02 12:22:23;;;;;;;1.33;1.15;;;10.00;53.20;;;;;;5066413;28;20082;-76
2022/01/02 12:24:49;;;;;;;1.48;1.20;;;10.10;53.00;;;;;;5065267;28;20041;-77
2022/01/02 12:27:16;;;;;;;2.17;1.35;;;10.20;52.30;;;;;;5066549;28;20032;-78
2022/01/02 12:29:43;;;;;;;3.45;1.33;;;10.20;52.10;;;;;;5065783;28;20090;-78
2022/01/02 12:32:10;;;;;;;2.00;1.40;;;10.20;52.00;;;;;;5050369;28;20461;-78
2022/01/02 12:34:36;;;;;;;2.00;1.02;;;10.10;52.20;;;;;;5064561;28;20056;-77
2022/01/02 12:37:04;;;;;;;1.85;1.30;;;10.10;52.30;;;;;;5066737;28;20043;-77
2022/01/02 12:39:33;;;;;;;1.50;1.40;;;10.00;52.60;;;;;;5065807;28;20040;-78
2022/01/02 12:42:03;;;;;;;2.67;1.00;;;10.10;52.40;;;;;;5066565;28;20139;-78
2022/01/02 12:44:32;;;;;;;2.22;1.40;;;10.00;52.40;;;;;;5066297;28;20028;-77
2022/01/02 12:47:00;;;;;;;1.35;1.20;;;10.10;52.60;;;;;;5046681;28;20036;-79
2022/01/02 12:49:32;;;;;;;2.95;1.75;;;10.00;52.70;;;;;;5064180;28;20040;-78
2022/01/02 12:52:01;;;;;;;1.52;0.98;;;10.20;52.30;;;;;;5065766;28;20032;-79
2022/01/02 12:54:30;;;;;;;1.15;1.05;;;10.20;52.10;;;;;;5065880;28;20024;-78
2022/01/02 12:57:01;;;;;;;2.25;1.20;;;10.30;51.70;;;;;;5049050;28;20177;-78
2022/01/02 12:59:35;;;;;;;1.25;1.10;;;10.30;51.40;;;;;;5065594;28;20043;-77
2022/01/02 13:02:12;;;;;;;1.85;1.40;;;10.30;51.30;;;;;;5065175;28;20093;-78
2022/01/02 13:04:44;;;;;;;1.80;1.17;;;10.30;51.30;;;;;;5044513;28;20066;-77
2022/01/02 13:07:21;;;;;;;1.40;1.13;;;10.30;51.80;;;;;;5046016;28;20032;-78
2022/01/02 13:10:08;;;;;;;2.50;1.23;;;10.10;51.60;;;;;;5064827;28;20044;-78